METAR Data
IDs: Format: Raw Decoded Include TAF

Data at: 0147 UTC 24 Oct 2019

METAR for:KMUT (Muscatine Muni, IA, US)
Text:KMUT 240135Z AUTO 36013G18KT 10SM BKN080 OVC090 09/06 A2997 RMK AO2
Temperature: 9.0°C ( 48°F)
Dewpoint: 6.0°C ( 43°F) [RH = 81%]
Pressure (altimeter):29.97 inches Hg (1015.0 mb)
Winds:from the N (360 degrees) at 15 MPH (13 knots; 6.7 m/s) gusting to 21 MPH (18 knots; 9.3 m/s)
Visibility:10 or more sm (16+ km)
Ceiling:8000 feet AGL
Clouds: broken clouds at 8000 feet AGL, overcast cloud deck at 9000 feet AGL
QC Flag:automated observation with no human augmentation